Time;durP1;ratioP1;P1;durP2;ratioP2;P2;SDS_P1;SDS_P2;PMS_P1;PMS_P2;Temp;Humidity;BMP_temperature;BMP_pressure;BME280_temperature;BME280_humidity;BME280_pressure;Samples;Min_cycle;Max_cycle;Signal;HPM_P1;HPM_P2
2022/01/11 07:00:25;;;;;;;14.25;4.43;;;;;;;;;;5929620;23;20019;-87
2022/01/11 07:02:52;;;;;;;15.05;4.35;;;;;;;;;;4932141;29;20539;-88
2022/01/11 07:05:19;;;;;;;13.05;4.40;;;;;;;;;;4932453;29;20520;-86
2022/01/11 07:07:46;;;;;;;18.63;4.32;;;;;;;;;;4926519;29;20092;-87
2022/01/11 07:10:13;;;;;;;19.10;5.65;;;;;;;;;;4918811;29;20103;-86
2022/01/11 07:12:40;;;;;;;22.45;5.22;;;;;;;;;;4913941;29;20056;-85
2022/01/11 07:15:07;;;;;;;13.93;5.10;;;;;;;;;;4916542;29;20075;-86
2022/01/11 07:17:34;;;;;;;15.65;4.78;;;;;;;;;;4935890;29;20055;-86
2022/01/11 07:20:01;;;;;;;20.75;5.63;;;;;;;;;;4935441;29;20095;-85
2022/01/11 07:22:28;;;;;;;23.35;6.00;;;;;;;;;;4912290;29;20052;-86
2022/01/11 07:24:54;;;;;;;24.15;5.43;;;;;;;;;;4935555;29;20554;-87
2022/01/11 07:27:21;;;;;;;22.48;6.63;;;;;;;;;;4919805;29;20576;-86
2022/01/11 07:29:48;;;;;;;21.85;6.50;;;;;;;;;;4918501;29;20060;-85
2022/01/11 07:32:15;;;;;;;27.70;7.13;;;;;;;;;;4933496;29;20472;-87
2022/01/11 07:34:43;;;;;;;19.60;6.15;;;;;;;;;;4906915;29;20123;-84
2022/01/11 07:37:09;;;;;;;33.58;7.75;;;;;;;;;;4922956;29;20055;-84
2022/01/11 07:39:36;;;;;;;30.13;7.45;;;;;;;;;;4934280;29;20075;-85
2022/01/11 07:42:04;;;;;;;33.28;7.63;;;;;;;;;;4933838;29;20040;-84
2022/01/11 07:44:30;;;;;;;27.15;7.22;;;;;;;;;;4912553;29;20044;-83
2022/01/11 07:46:57;;;;;;;46.65;8.68;;;;;;;;;;4922384;29;20517;-83
2022/01/11 07:49:24;;;;;;;57.20;10.20;;;;;;;;;;4922170;29;20115;-84
2022/01/11 07:51:50;;;;;;;67.70;10.35;;;;;;;;;;4920552;29;20051;-84
2022/01/11 07:54:17;;;;;;;45.47;9.80;;;;;;;;;;4932582;29;20138;-84
2022/01/11 07:56:43;;;;;;;51.30;10.40;;;;;;;;;;4933581;29;20118;-84
2022/01/11 07:59:11;;;;;;;63.25;8.88;;;;;;;;;;4924189;29;20063;-83
2022/01/11 08:01:38;;;;;;;41.25;8.43;;;;;;;;;;4925732;29;20138;-84
2022/01/11 08:04:05;;;;;;;47.78;9.13;;;;;;;;;;4931994;29;20066;-83
2022/01/11 08:06:38;;;;;;;62.65;11.63;;;;;;;;;;4902794;29;20047;-84
2022/01/11 08:09:04;;;;;;;40.10;10.35;;;;;;;;;;4913699;29;20047;-83
2022/01/11 08:11:31;;;;;;;32.22;7.40;;;;;;;;;;4932761;29;20048;-84
2022/01/11 08:13:58;;;;;;;20.35;5.45;;;;;;;;;;4926684;29;20122;-86
2022/01/11 08:16:24;;;;;;;21.08;5.40;;;;;;;;;;4923322;29;20520;-84
2022/01/11 08:18:51;;;;;;;16.92;5.28;;;;;;;;;;4932453;29;20533;-84
2022/01/11 08:21:18;;;;;;;16.60;5.05;;;;;;;;;;4929090;29;20062;-84
2022/01/11 08:23:45;;;;;;;16.33;4.57;;;;;;;;;;4927215;29;20509;-85
2022/01/11 08:26:13;;;;;;;16.52;5.60;;;;;;;;;;4927809;29;20051;-85
2022/01/11 08:28:43;;;;;;;14.55;4.95;;;;;;;;;;4929164;29;20099;-85
2022/01/11 08:31:10;;;;;;;13.43;4.53;;;;;;;;;;4928041;29;20114;-84
2022/01/11 08:33:38;;;;;;;38.15;6.13;;;;;;;;;;4928364;29;20518;-86
2022/01/11 08:36:08;;;;;;;36.08;7.28;;;;;;;;;;4926202;29;20053;-84
2022/01/11 08:38:35;;;;;;;42.05;6.90;;;;;;;;;;4928070;29;20582;-85
2022/01/11 08:41:02;;;;;;;66.43;9.48;;;;;;;;;;4928562;29;20119;-85
2022/01/11 08:43:32;;;;;;;52.13;8.95;;;;;;;;;;4926966;29;20044;-86
2022/01/11 08:46:02;;;;;;;67.75;9.68;;;;;;;;;;4928960;29;20578;-85
2022/01/11 08:48:30;;;;;;;56.40;9.95;;;;;;;;;;4926740;29;20460;-84
2022/01/11 08:50:57;;;;;;;53.95;9.63;;;;;;;;;;4928656;29;20056;-85
2022/01/11 08:53:24;;;;;;;49.78;9.73;;;;;;;;;;4928326;29;20106;-83
2022/01/11 08:55:52;;;;;;;46.42;8.23;;;;;;;;;;4927525;29;20058;-83
2022/01/11 08:58:20;;;;;;;54.00;8.27;;;;;;;;;;4926953;29;20052;-84
2022/01/11 09:00:49;;;;;;;112.70;10.73;;;;;;;;;;4907493;29;20059;-84
2022/01/11 09:03:16;;;;;;;;;;;;;;;;;;4928308;29;20051;-84
2022/01/11 09:05:43;;;;;;;162.55;11.77;;;;;;;;;;4928869;29;20167;-83
2022/01/11 09:08:11;;;;;;;92.47;11.20;;;;;;;;;;4924007;29;20112;-83
2022/01/11 09:10:38;;;;;;;68.55;9.43;;;;;;;;;;4926300;29;20043;-83
2022/01/11 09:13:05;;;;;;;39.63;9.13;;;;;;;;;;4927465;29;20043;-83
2022/01/11 09:15:32;;;;;;;28.52;7.82;;;;;;;;;;4927780;29;20051;-84
2022/01/11 09:18:01;;;;;;;25.48;8.15;;;;;;;;;;4928951;29;20043;-84
2022/01/11 09:20:28;;;;;;;24.58;7.55;;;;;;;;;;4909680;29;20516;-84
2022/01/11 09:22:55;;;;;;;17.20;7.85;;;;;;;;;;4908112;29;20728;-83
2022/01/11 09:25:22;;;;;;;23.08;8.05;;;;;;;;;;4926979;29;20047;-82
2022/01/11 09:27:49;;;;;;;17.48;7.05;;;;;;;;;;4926915;29;20055;-83
2022/01/11 09:30:16;;;;;;;15.15;6.60;;;;;;;;;;4926780;29;20056;-83
2022/01/11 09:32:43;;;;;;;13.40;6.00;;;;;;;;;;4911232;29;20436;-84
2022/01/11 09:35:12;;;;;;;17.52;6.75;;;;;;;;;;4926640;29;20048;-83
2022/01/11 09:37:39;;;;;;;13.63;5.63;;;;;;;;;;4927057;29;20062;-83
2022/01/11 09:40:10;;;;;;;11.35;5.30;;;;;;;;;;4926729;29;20043;-84
2022/01/11 09:42:37;;;;;;;10.65;5.15;;;;;;;;;;4910395;29;20055;-83
2022/01/11 09:45:06;;;;;;;10.85;4.15;;;;;;;;;;4928340;29;20099;-84
2022/01/11 09:47:33;;;;;;;14.13;4.50;;;;;;;;;;4927436;29;20907;-83
2022/01/11 09:49:59;;;;;;;11.52;4.80;;;;;;;;;;4927173;29;20115;-83
2022/01/11 09:52:27;;;;;;;13.07;5.47;;;;;;;;;;4926569;29;20047;-83
2022/01/11 09:54:55;;;;;;;11.82;5.47;;;;;;;;;;4927512;29;20543;-82
2022/01/11 09:57:23;;;;;;;14.75;5.78;;;;;;;;;;4926520;29;20051;-82
2022/01/11 09:59:51;;;;;;;10.68;5.53;;;;;;;;;;4927733;29;20052;-82
2022/01/11 10:02:17;;;;;;;10.87;5.23;;;;;;;;;;4925231;29;20134;-83
2022/01/11 10:04:45;;;;;;;11.23;5.97;;;;;;;;;;4926296;29;20907;-83
2022/01/11 10:07:13;;;;;;;11.77;4.70;;;;;;;;;;4926929;29;20051;-83
2022/01/11 10:09:43;;;;;;;13.23;5.00;;;;;;;;;;4923491;29;20052;-84
2022/01/11 10:12:12;;;;;;;8.73;4.45;;;;;;;;;;4926644;29;20058;-83
2022/01/11 10:14:46;;;;;;;9.90;4.57;;;;;;;;;;4927667;29;20050;-84
2022/01/11 10:17:18;;;;;;;8.73;3.25;;;;;;;;;;4903818;29;20051;-84
2022/01/11 10:19:50;;;;;;;5.97;2.78;;;;;;;;;;4921016;29;20036;-84
2022/01/11 10:22:20;;;;;;;6.22;2.95;;;;;;;;;;4925546;29;20051;-83
2022/01/11 10:24:50;;;;;;;5.60;2.47;;;;;;;;;;4909772;29;20047;-85
2022/01/11 10:27:27;;;;;;;6.05;2.47;;;;;;;;;;4926358;29;20048;-83
2022/01/11 10:29:58;;;;;;;5.32;2.25;;;;;;;;;;4927330;29;20111;-83
2022/01/11 10:32:35;;;;;;;5.38;1.88;;;;;;;;;;4925056;29;20054;-84
2022/01/11 10:35:07;;;;;;;4.00;1.90;;;;;;;;;;4926810;29;20063;-84
2022/01/11 10:37:35;;;;;;;4.22;1.83;;;;;;;;;;4925225;29;20089;-81
2022/01/11 10:40:07;;;;;;;4.23;1.77;;;;;;;;;;4925852;29;20083;-82
2022/01/11 10:42:38;;;;;;;4.75;1.42;;;;;;;;;;4925170;29;20299;-81
2022/01/11 10:45:08;;;;;;;4.43;1.98;;;;;;;;;;4924138;29;20047;-82
2022/01/11 10:47:39;;;;;;;5.75;2.22;;;;;;;;;;4925836;29;20039;-81
2022/01/11 10:50:13;;;;;;;6.50;2.20;;;;;;;;;;4929143;29;20062;-83
2022/01/11 10:52:42;;;;;;;6.40;2.65;;;;;;;;;;4929695;29;21180;-84
2022/01/11 10:55:14;;;;;;;7.60;3.00;;;;;;;;;;4929178;29;20587;-84
2022/01/11 10:57:43;;;;;;;8.43;3.58;;;;;;;;;;4930321;29;20587;-85
2022/01/11 11:00:12;;;;;;;6.25;3.70;;;;;;;;;;4913149;29;20119;-84
2022/01/11 11:02:40;;;;;;;7.95;4.03;;;;;;;;;;4912846;29;20048;-84
2022/01/11 11:05:26;;;;;;;7.63;4.50;;;;;;;;;;4930001;29;20138;-84
2022/01/11 11:08:06;;;;;;;11.40;4.40;;;;;;;;;;4928065;29;20067;-84
2022/01/11 11:10:57;;;;;;;6.53;4.20;;;;;;;;;;4923565;29;20055;-85
2022/01/11 11:13:27;;;;;;;5.78;3.80;;;;;;;;;;4930426;29;20629;-84
2022/01/11 11:16:00;;;;;;;8.30;3.45;;;;;;;;;;4930316;29;20067;-85
2022/01/11 11:18:34;;;;;;;6.55;4.20;;;;;;;;;;4912002;29;20056;-84
2022/01/11 11:21:38;;;;;;;6.07;3.10;;;;;;;;;;4929583;29;20051;-84
2022/01/11 11:24:06;;;;;;;6.05;3.47;;;;;;;;;;4917131;29;20044;-85
2022/01/11 11:26:38;;;;;;;5.60;2.60;;;;;;;;;;4929379;29;20063;-84
2022/01/11 11:29:10;;;;;;;4.90;2.05;;;;;;;;;;4928144;29;20082;-86
2022/01/11 11:31:58;;;;;;;4.63;2.20;;;;;;;;;;4915769;29;20134;-85
2022/01/11 11:34:29;;;;;;;3.42;1.85;;;;;;;;;;4930089;29;22047;-87
2022/01/11 11:37:03;;;;;;;6.00;2.03;;;;;;;;;;4930863;29;20055;-86
2022/01/11 11:39:32;;;;;;;4.72;1.83;;;;;;;;;;4930737;29;20044;-86
2022/01/11 11:42:00;;;;;;;4.32;2.10;;;;;;;;;;4931244;29;20051;-85
2022/01/11 11:44:30;;;;;;;6.72;1.58;;;;;;;;;;4929522;29;20051;-84
2022/01/11 11:47:05;;;;;;;4.70;1.95;;;;;;;;;;4912315;29;20116;-82
2022/01/11 11:49:49;;;;;;;3.55;1.80;;;;;;;;;;4929089;29;20106;-83
2022/01/11 11:52:17;;;;;;;4.00;1.92;;;;;;;;;;4928788;29;20047;-82
2022/01/11 11:54:53;;;;;;;5.00;1.70;;;;;;;;;;4930009;29;20507;-82
2022/01/11 11:57:21;;;;;;;5.03;1.98;;;;;;;;;;4927497;29;20072;-82
2022/01/11 12:00:08;;;;;;;5.22;2.38;;;;;;;;;;4927433;29;20059;-82
2022/01/11 12:02:39;;;;;;;4.35;2.28;;;;;;;;;;4927902;29;20113;-82
2022/01/11 12:05:12;;;;;;;5.53;1.92;;;;;;;;;;4928299;29;20120;-82
2022/01/11 12:07:45;;;;;;;6.68;2.03;;;;;;;;;;4929319;29;20071;-81
2022/01/11 12:10:17;;;;;;;7.75;2.20;;;;;;;;;;4927072;29;20052;-84
2022/01/11 12:12:50;;;;;;;3.38;2.00;;;;;;;;;;4928370;29;20036;-81
2022/01/11 12:15:22;;;;;;;3.75;1.80;;;;;;;;;;4928977;29;20052;-82
2022/01/11 12:17:55;;;;;;;5.53;2.08;;;;;;;;;;4928509;29;20079;-82
2022/01/11 12:20:48;;;;;;;95.40;60.17;;;;;;;;;;4927473;29;20055;-81
2022/01/11 12:23:33;;;;;;;39.53;25.38;;;;;;;;;;4925704;29;20060;-86
2022/01/11 12:26:16;;;;;;;69.78;49.70;;;;;;;;;;4906625;29;20064;-83
2022/01/11 12:28:43;;;;;;;8.98;5.57;;;;;;;;;;4928724;29;20055;-83
2022/01/11 12:31:27;;;;;;;9.73;4.00;;;;;;;;;;4928659;29;20095;-84
2022/01/11 12:33:55;;;;;;;24.30;22.05;;;;;;;;;;4929373;29;20588;-85
2022/01/11 12:36:48;;;;;;;8.88;5.30;;;;;;;;;;4911514;29;20059;-83
2022/01/11 12:39:15;;;;;;;5.82;2.00;;;;;;;;;;4928922;29;20083;-84
2022/01/11 12:41:42;;;;;;;2.85;1.77;;;;;;;;;;4929875;29;20047;-84
2022/01/11 12:44:24;;;;;;;6.05;2.20;;;;;;;;;;4928280;29;20600;-85
2022/01/11 12:46:54;;;;;;;8.85;1.70;;;;;;;;;;4927767;29;20050;-83
2022/01/11 12:49:22;;;;;;;7.90;2.22;;;;;;;;;;4928008;29;20047;-83
2022/01/11 12:51:52;;;;;;;8.38;2.40;;;;;;;;;;4928644;29;20059;-83
2022/01/11 12:54:37;;;;;;;8.82;1.98;;;;;;;;;;4928114;29;20476;-83
2022/01/11 12:57:09;;;;;;;10.05;1.90;;;;;;;;;;4927255;29;20103;-82
2022/01/11 12:59:38;;;;;;;4.50;1.70;;;;;;;;;;4928781;29;20059;-84
2022/01/11 13:02:08;;;;;;;4.78;1.30;;;;;;;;;;4927134;29;20051;-83
2022/01/11 13:04:38;;;;;;;7.88;1.60;;;;;;;;;;4927455;29;20155;-84
2022/01/11 13:07:16;;;;;;;6.38;1.88;;;;;;;;;;4904011;29;20071;-84
2022/01/11 13:09:45;;;;;;;6.57;1.67;;;;;;;;;;4924657;29;20646;-84
2022/01/11 13:12:29;;;;;;;7.57;1.63;;;;;;;;;;4926859;29;20059;-83
2022/01/11 13:15:05;;;;;;;8.15;2.70;;;;;;;;;;4929265;29;20047;-84
2022/01/11 13:17:46;;;;;;;11.80;2.20;;;;;;;;;;4928350;29;20044;-84
2022/01/11 13:20:37;;;;;;;8.48;2.25;;;;;;;;;;4927810;29;20532;-84
2022/01/11 13:23:14;;;;;;;9.80;2.63;;;;;;;;;;4927735;29;20551;-84
2022/01/11 13:25:50;;;;;;;8.55;2.30;;;;;;;;;;4926524;29;20043;-83
2022/01/11 13:28:31;;;;;;;12.65;2.60;;;;;;;;;;4927177;29;20110;-83
2022/01/11 13:30:58;;;;;;;12.13;2.40;;;;;;;;;;4926929;29;20472;-84
2022/01/11 13:33:29;;;;;;;5.00;2.15;;;;;;;;;;4926407;29;20047;-84
2022/01/11 13:36:01;;;;;;;9.27;2.35;;;;;;;;;;4928731;29;20512;-84
2022/01/11 13:38:33;;;;;;;8.27;2.38;;;;;;;;;;4927280;29;20055;-84
2022/01/11 13:41:02;;;;;;;4.40;2.20;;;;;;;;;;4927857;29;20048;-84
2022/01/11 13:43:34;;;;;;;13.48;3.22;;;;;;;;;;4925854;29;20059;-83
2022/01/11 13:46:01;;;;;;;8.32;2.70;;;;;;;;;;4928269;29;20048;-84
2022/01/11 13:48:27;;;;;;;9.70;3.00;;;;;;;;;;4926796;29;20055;-82
2022/01/11 13:50:57;;;;;;;10.75;2.60;;;;;;;;;;4928125;29;20055;-82
2022/01/11 13:53:33;;;;;;;9.52;2.42;;;;;;;;;;4926612;29;20054;-83
2022/01/11 13:56:02;;;;;;;9.43;1.98;;;;;;;;;;4927454;29;20465;-83
2022/01/11 13:58:29;;;;;;;10.75;2.30;;;;;;;;;;4926771;29;20055;-83
2022/01/11 14:00:59;;;;;;;11.20;2.63;;;;;;;;;;4927135;29;20059;-84
2022/01/11 14:03:29;;;;;;;12.32;3.35;;;;;;;;;;4925462;29;20051;-84
2022/01/11 14:05:55;;;;;;;10.45;4.35;;;;;;;;;;4927196;29;20714;-82
2022/01/11 14:08:32;;;;;;;11.13;3.60;;;;;;;;;;4925152;29;20047;-84
2022/01/11 14:11:07;;;;;;;11.30;3.40;;;;;;;;;;4926696;29;20044;-83
2022/01/11 14:13:35;;;;;;;10.00;2.88;;;;;;;;;;4927629;29;20044;-83
2022/01/11 14:16:09;;;;;;;11.48;2.40;;;;;;;;;;4926895;29;20091;-84
2022/01/11 14:18:36;;;;;;;10.57;2.65;;;;;;;;;;4926399;29;20091;-83
2022/01/11 14:21:10;;;;;;;9.48;3.28;;;;;;;;;;4928647;29;20056;-84
2022/01/11 14:23:37;;;;;;;14.40;3.75;;;;;;;;;;4925387;29;20044;-83
2022/01/11 14:26:08;;;;;;;8.98;3.72;;;;;;;;;;4909654;29;20422;-84
2022/01/11 14:28:38;;;;;;;10.93;3.15;;;;;;;;;;4926634;29;20055;-83
2022/01/11 14:31:16;;;;;;;9.60;2.67;;;;;;;;;;4926006;29;20052;-84
2022/01/11 14:33:43;;;;;;;14.15;3.20;;;;;;;;;;4926934;29;20505;-84
2022/01/11 14:36:20;;;;;;;12.77;2.70;;;;;;;;;;4926510;29;20134;-84
2022/01/11 14:38:50;;;;;;;8.77;2.38;;;;;;;;;;4910910;29;20892;-84
2022/01/11 14:41:21;;;;;;;12.18;2.60;;;;;;;;;;4925837;29;20058;-82
2022/01/11 14:44:18;;;;;;;14.57;3.00;;;;;;;;;;4908119;29;20051;-83
2022/01/11 14:46:57;;;;;;;10.82;3.35;;;;;;;;;;4924243;29;20127;-83
2022/01/11 14:49:31;;;;;;;11.95;3.65;;;;;;;;;;4924814;29;20059;-83
2022/01/11 14:52:07;;;;;;;18.63;4.57;;;;;;;;;;4926633;29;20043;-83
2022/01/11 14:54:34;;;;;;;16.13;3.95;;;;;;;;;;4925635;29;20052;-84
2022/01/11 14:57:11;;;;;;;13.70;3.58;;;;;;;;;;4927049;29;20052;-83
2022/01/11 14:59:38;;;;;;;14.52;3.70;;;;;;;;;;4926366;29;20051;-81
2022/01/11 15:02:17;;;;;;;14.45;4.28;;;;;;;;;;4922455;29;20062;-83
2022/01/11 15:04:44;;;;;;;17.00;4.65;;;;;;;;;;4921852;29;20039;-83
2022/01/11 15:07:18;;;;;;;16.08;4.70;;;;;;;;;;4925543;29;20044;-83
2022/01/11 15:09:46;;;;;;;18.50;4.85;;;;;;;;;;4925455;29;20056;-83
2022/01/11 15:12:18;;;;;;;17.63;4.40;;;;;;;;;;4908980;29;20047;-83
2022/01/11 15:14:48;;;;;;;19.67;4.50;;;;;;;;;;4926945;29;20052;-83
2022/01/11 15:17:15;;;;;;;14.15;3.90;;;;;;;;;;4924661;29;20059;-83
2022/01/11 15:19:42;;;;;;;14.73;3.83;;;;;;;;;;4925573;29;20516;-83
2022/01/11 15:22:10;;;;;;;13.93;3.78;;;;;;;;;;4909004;29;20051;-83
2022/01/11 15:24:38;;;;;;;19.15;4.15;;;;;;;;;;4926418;29;20094;-83
2022/01/11 15:27:07;;;;;;;11.60;3.28;;;;;;;;;;4926586;29;20047;-82
2022/01/11 15:29:34;;;;;;;13.75;3.67;;;;;;;;;;4909842;29;20055;-83
2022/01/11 15:32:02;;;;;;;12.57;3.10;;;;;;;;;;4901889;29;20080;-85
2022/01/11 15:34:30;;;;;;;15.82;4.20;;;;;;;;;;4909032;29;20119;-83
2022/01/11 15:36:57;;;;;;;16.20;4.72;;;;;;;;;;4929195;29;20047;-83
2022/01/11 15:39:23;;;;;;;11.57;4.78;;;;;;;;;;4929320;29;20047;-84
2022/01/11 15:41:56;;;;;;;16.77;5.10;;;;;;;;;;4931086;29;20296;-84
2022/01/11 15:44:23;;;;;;;14.75;5.43;;;;;;;;;;4928318;29;20472;-84
2022/01/11 15:46:50;;;;;;;15.27;4.70;;;;;;;;;;4928935;29;20059;-83
2022/01/11 15:49:17;;;;;;;16.58;4.70;;;;;;;;;;4929264;29;20124;-84
2022/01/11 15:51:45;;;;;;;26.05;4.93;;;;;;;;;;4929299;29;20534;-85
2022/01/11 15:54:17;;;;;;;14.93;4.32;;;;;;;;;;4929200;29;20048;-85
2022/01/11 15:56:46;;;;;;;16.58;4.80;;;;;;;;;;4929845;29;20448;-84
2022/01/11 15:59:13;;;;;;;17.38;5.28;;;;;;;;;;4928989;29;20048;-83
2022/01/11 16:01:40;;;;;;;22.75;6.57;;;;;;;;;;4928903;29;20094;-85
2022/01/11 16:04:06;;;;;;;17.00;5.00;;;;;;;;;;4928401;29;20393;-85
2022/01/11 16:06:33;;;;;;;20.23;4.22;;;;;;;;;;4928983;29;20055;-84
2022/01/11 16:09:00;;;;;;;19.98;4.35;;;;;;;;;;4923787;29;20055;-84
2022/01/11 16:11:27;;;;;;;23.05;4.85;;;;;;;;;;4928661;29;20245;-83
2022/01/11 16:13:54;;;;;;;23.08;4.82;;;;;;;;;;4908476;29;20497;-83
2022/01/11 16:16:40;;;;;;;19.77;7.03;;;;;;;;;;4928965;29;20047;-83
2022/01/11 16:19:08;;;;;;;27.20;7.07;;;;;;;;;;4911098;29;20055;-85
2022/01/11 16:21:36;;;;;;;22.60;8.77;;;;;;;;;;4926962;29;20048;-87
2022/01/11 16:24:06;;;;;;;24.65;7.82;;;;;;;;;;4930213;29;20051;-86
2022/01/11 16:26:37;;;;;;;17.10;4.50;;;;;;;;;;4929177;29;20736;-88
2022/01/11 16:29:06;;;;;;;15.35;3.40;;;;;;;;;;4928852;29;20047;-86
2022/01/11 16:31:33;;;;;;;17.43;4.07;;;;;;;;;;4912974;29;20059;-85
2022/01/11 16:34:01;;;;;;;13.30;4.82;;;;;;;;;;4930052;29;20369;-88
2022/01/11 16:36:28;;;;;;;19.75;6.10;;;;;;;;;;4929261;29;20056;-85
2022/01/11 16:38:59;;;;;;;17.85;6.68;;;;;;;;;;4930329;29;20048;-85
2022/01/11 16:44:12;;;;;;;31.00;19.90;;;;;;;;;;4927266;29;20059;-86
2022/01/11 16:46:40;;;;;;;47.92;25.98;;;;;;;;;;4928443;29;20062;-85
2022/01/11 16:49:09;;;;;;;50.92;27.35;;;;;;;;;;4928509;29;20044;-86
2022/01/11 16:51:36;;;;;;;80.07;42.58;;;;;;;;;;4926369;29;20462;-86
2022/01/11 16:54:06;;;;;;;93.15;46.67;;;;;;;;;;4929441;29;20408;-87
2022/01/11 16:56:33;;;;;;;84.03;37.97;;;;;;;;;;4929122;29;20051;-87
2022/01/11 16:59:00;;;;;;;79.55;41.13;;;;;;;;;;4927906;29;20115;-87
2022/01/11 17:01:27;;;;;;;67.20;32.63;;;;;;;;;;4928189;29;20513;-85
2022/01/11 17:03:54;;;;;;;75.10;36.72;;;;;;;;;;4927921;29;20051;-86
2022/01/11 17:06:27;;;;;;;114.22;60.10;;;;;;;;;;4911917;29;20147;-86
2022/01/11 17:08:54;;;;;;;204.23;113.28;;;;;;;;;;4924711;29;20409;-85
2022/01/11 17:11:22;;;;;;;70.68;30.30;;;;;;;;;;4909488;29;20074;-87
2022/01/11 17:13:49;;;;;;;51.15;24.50;;;;;;;;;;4911258;29;20488;-86
2022/01/11 17:16:18;;;;;;;26.38;9.27;;;;;;;;;;4926812;29;20044;-88
2022/01/11 17:18:44;;;;;;;34.58;7.13;;;;;;;;;;4927949;29;20055;-86
2022/01/11 17:21:11;;;;;;;26.67;6.43;;;;;;;;;;4928121;29;20643;-85
2022/01/11 17:23:38;;;;;;;30.40;6.68;;;;;;;;;;4928636;29;20048;-86
2022/01/11 17:26:05;;;;;;;34.97;7.68;;;;;;;;;;4927694;29;20049;-86
2022/01/11 17:28:32;;;;;;;26.85;7.32;;;;;;;;;;4911057;29;20465;-86
2022/01/11 17:30:58;;;;;;;35.40;7.40;;;;;;;;;;4928085;29;20535;-87
2022/01/11 17:33:25;;;;;;;40.63;8.43;;;;;;;;;;4927010;29;20470;-86
2022/01/11 17:35:52;;;;;;;38.45;9.40;;;;;;;;;;4912190;29;20599;-87
2022/01/11 17:38:19;;;;;;;33.90;9.77;;;;;;;;;;4926776;29;20058;-85
2022/01/11 17:40:46;;;;;;;48.92;9.65;;;;;;;;;;4927918;29;20051;-87
2022/01/11 17:43:13;;;;;;;40.92;10.70;;;;;;;;;;4927573;29;20044;-86
2022/01/11 17:45:39;;;;;;;33.78;9.90;;;;;;;;;;4926802;29;20063;-85
2022/01/11 17:48:06;;;;;;;28.20;9.55;;;;;;;;;;4928278;29;20055;-87
2022/01/11 17:50:34;;;;;;;45.33;10.85;;;;;;;;;;4919617;29;20079;-88
2022/01/11 17:53:03;;;;;;;33.97;10.70;;;;;;;;;;4926974;29;20059;-87
2022/01/11 17:55:31;;;;;;;39.97;11.13;;;;;;;;;;4924197;29;20046;-86
2022/01/11 17:57:58;;;;;;;32.30;11.85;;;;;;;;;;4927051;29;20102;-84
2022/01/11 18:00:25;;;;;;;53.80;13.50;;;;;;;;;;4924087;29;20652;-84
2022/01/11 18:02:53;;;;;;;39.38;12.80;;;;;;;;;;4927873;29;20583;-84
2022/01/11 18:05:20;;;;;;;47.70;12.35;;;;;;;;;;4926524;29;20457;-84
2022/01/11 18:07:46;;;;;;;46.03;15.05;;;;;;;;;;4927026;29;20106;-83
2022/01/11 18:10:14;;;;;;;48.95;13.52;;;;;;;;;;4920189;29;20064;-85
2022/01/11 18:12:40;;;;;;;50.17;13.70;;;;;;;;;;4928397;29;20051;-88
2022/01/11 18:15:09;;;;;;;47.80;14.63;;;;;;;;;;4929583;29;20047;-88
2022/01/11 18:17:37;;;;;;;52.55;14.30;;;;;;;;;;4928033;29;20051;-86
2022/01/11 18:20:10;;;;;;;44.67;14.27;;;;;;;;;;4928164;29;20047;-84
2022/01/11 18:22:39;;;;;;;58.80;23.58;;;;;;;;;;4909235;29;20520;-84
2022/01/11 18:25:07;;;;;;;53.63;25.15;;;;;;;;;;4907244;29;20067;-84
2022/01/11 18:27:35;;;;;;;49.25;19.40;;;;;;;;;;4908763;29;20555;-83
2022/01/11 18:30:07;;;;;;;57.10;19.10;;;;;;;;;;4927454;29;20166;-83
2022/01/11 18:32:34;;;;;;;47.10;14.10;;;;;;;;;;4908424;29;20043;-84
2022/01/11 18:35:03;;;;;;;39.25;11.50;;;;;;;;;;4923720;29;20055;-84
2022/01/11 18:37:30;;;;;;;54.58;23.80;;;;;;;;;;4925419;29;20099;-84
2022/01/11 18:39:58;;;;;;;76.55;42.45;;;;;;;;;;4925117;29;20909;-84
2022/01/11 18:42:25;;;;;;;81.00;45.03;;;;;;;;;;4924392;29;20047;-84
2022/01/11 18:44:52;;;;;;;102.47;55.10;;;;;;;;;;4925564;29;20182;-85
2022/01/11 18:47:19;;;;;;;80.25;43.88;;;;;;;;;;4924448;29;20054;-83
2022/01/11 18:49:45;;;;;;;44.30;20.10;;;;;;;;;;4907511;29;20058;-83
2022/01/11 18:52:12;;;;;;;36.08;13.20;;;;;;;;;;4924016;29;20059;-84
2022/01/11 18:54:39;;;;;;;32.10;14.85;;;;;;;;;;4926780;29;20055;-87
2022/01/11 18:57:07;;;;;;;35.00;16.00;;;;;;;;;;4909341;29;20461;-86
2022/01/11 18:59:37;;;;;;;30.95;11.80;;;;;;;;;;4925468;29;20127;-83
2022/01/11 19:02:06;;;;;;;28.30;9.95;;;;;;;;;;4923914;29;20501;-84
2022/01/11 19:04:34;;;;;;;26.40;10.82;;;;;;;;;;4925601;29;20154;-86
2022/01/11 19:07:05;;;;;;;35.58;13.95;;;;;;;;;;4924101;29;20055;-85
2022/01/11 19:09:33;;;;;;;30.50;12.90;;;;;;;;;;4907315;29;20043;-84
2022/01/11 19:12:01;;;;;;;40.30;16.92;;;;;;;;;;4930301;29;20532;-83
2022/01/11 19:14:29;;;;;;;;;;;;;;;;;;4929056;29;20548;-85
2022/01/11 19:16:58;;;;;;;43.17;18.73;;;;;;;;;;4929680;29;19927;-84
2022/01/11 19:19:25;;;;;;;63.85;25.60;;;;;;;;;;4930140;29;20428;-85
2022/01/11 19:21:52;;;;;;;132.80;86.78;;;;;;;;;;4909921;29;20605;-83
2022/01/11 19:24:19;;;;;;;105.75;59.58;;;;;;;;;;4929311;29;20059;-84
2022/01/11 19:26:49;;;;;;;67.63;29.38;;;;;;;;;;4930838;29;20044;-85
2022/01/11 19:29:16;;;;;;;51.28;22.13;;;;;;;;;;4928533;29;20134;-85
2022/01/11 19:31:44;;;;;;;46.53;21.08;;;;;;;;;;4930441;29;20052;-84
2022/01/11 19:34:13;;;;;;;114.53;59.25;;;;;;;;;;4930128;29;20047;-85
2022/01/11 19:36:43;;;;;;;38.42;21.25;;;;;;;;;;4930289;29;20043;-85
2022/01/11 19:39:10;;;;;;;27.67;15.93;;;;;;;;;;4929984;29;20107;-85
2022/01/11 19:41:38;;;;;;;31.67;20.38;;;;;;;;;;4926931;29;20471;-84
2022/01/11 19:44:07;;;;;;;17.27;12.88;;;;;;;;;;4929714;29;20079;-85
2022/01/11 19:46:35;;;;;;;27.60;19.52;;;;;;;;;;4929914;29;20056;-85
2022/01/11 19:49:02;;;;;;;20.70;13.63;;;;;;;;;;4913194;29;20050;-85
2022/01/11 19:51:32;;;;;;;24.33;14.13;;;;;;;;;;4929463;29;21083;-85
2022/01/11 19:53:59;;;;;;;21.30;14.63;;;;;;;;;;4930657;29;20052;-85
2022/01/11 19:56:27;;;;;;;21.88;13.75;;;;;;;;;;4910631;29;20048;-85
2022/01/11 19:58:53;;;;;;;21.30;12.88;;;;;;;;;;4929154;29;20130;-84
2022/01/11 20:01:20;;;;;;;22.23;14.48;;;;;;;;;;4920778;29;20970;-84
2022/01/11 20:03:47;;;;;;;26.67;20.15;;;;;;;;;;4929156;29;20087;-83
2022/01/11 20:06:14;;;;;;;36.83;25.45;;;;;;;;;;4927594;29;20054;-83
2022/01/11 20:08:40;;;;;;;43.17;22.50;;;;;;;;;;4929152;29;20146;-84
2022/01/11 20:11:07;;;;;;;39.22;22.25;;;;;;;;;;4928496;29;20416;-84
2022/01/11 20:13:34;;;;;;;52.35;28.35;;;;;;;;;;4926618;29;20078;-85
2022/01/11 20:16:01;;;;;;;50.70;28.85;;;;;;;;;;4911071;29;20056;-84
2022/01/11 20:18:28;;;;;;;58.25;36.47;;;;;;;;;;4926176;29;20051;-84
2022/01/11 20:20:55;;;;;;;55.25;32.20;;;;;;;;;;4908213;28;20135;-83
2022/01/11 20:28:55;;;;;;;43.25;23.02;;;;;;;;;;4927043;29;20512;-85
2022/01/11 20:31:22;;;;;;;37.90;19.85;;;;;;;;;;4925860;29;20779;-84
2022/01/11 20:33:50;;;;;;;42.42;26.30;;;;;;;;;;4927100;29;20146;-84
2022/01/11 20:36:17;;;;;;;50.63;27.42;;;;;;;;;;4926284;29;20071;-84
2022/01/11 20:38:44;;;;;;;58.00;30.05;;;;;;;;;;4928757;29;20044;-84
2022/01/11 20:41:12;;;;;;;64.22;22.63;;;;;;;;;;4927325;29;20040;-83
2022/01/11 20:43:40;;;;;;;191.18;22.73;;;;;;;;;;4930213;29;20111;-84
2022/01/11 20:46:07;;;;;;;33.30;18.45;;;;;;;;;;4927244;29;20115;-84
2022/01/11 20:48:35;;;;;;;63.75;18.70;;;;;;;;;;4928420;29;20063;-81
2022/01/11 20:51:10;;;;;;;29.80;16.95;;;;;;;;;;4923563;29;20083;-84
2022/01/11 20:53:38;;;;;;;57.17;17.85;;;;;;;;;;4926268;29;20135;-85
2022/01/11 20:56:14;;;;;;;31.80;17.17;;;;;;;;;;4928786;29;20071;-83
2022/01/11 20:58:43;;;;;;;48.70;18.08;;;;;;;;;;4927555;29;20042;-84
2022/01/11 21:01:11;;;;;;;29.08;15.93;;;;;;;;;;4926271;29;20055;-84
2022/01/11 21:03:43;;;;;;;31.05;17.08;;;;;;;;;;4926892;29;20078;-84
2022/01/11 21:06:11;;;;;;;28.38;17.58;;;;;;;;;;4923367;29;20052;-85
2022/01/11 21:08:42;;;;;;;42.70;25.23;;;;;;;;;;4926748;29;20048;-86
2022/01/11 21:11:10;;;;;;;38.00;21.63;;;;;;;;;;4927930;29;20051;-85
2022/01/11 21:13:37;;;;;;;;;;;;;;;;;;4928002;29;20130;-85
2022/01/11 21:21:36;;;;;;;41.53;20.33;;;;;;;;;;4925626;29;20526;-83
2022/01/11 21:24:05;;;;;;;56.72;26.67;;;;;;;;;;4926504;29;20113;-83
2022/01/11 21:26:32;;;;;;;73.40;34.95;;;;;;;;;;4923471;29;20150;-84
2022/01/11 21:29:00;;;;;;;61.78;34.28;;;;;;;;;;4925506;29;20091;-84
2022/01/11 21:31:27;;;;;;;53.90;28.47;;;;;;;;;;4925558;29;20070;-84
2022/01/11 21:33:56;;;;;;;66.28;25.48;;;;;;;;;;4923765;29;20067;-84
2022/01/11 21:36:23;;;;;;;125.07;23.77;;;;;;;;;;4925299;29;20099;-86
2022/01/11 21:38:50;;;;;;;191.20;25.45;;;;;;;;;;4928240;29;20083;-85
2022/01/11 21:41:18;;;;;;;52.72;21.25;;;;;;;;;;4900031;29;20050;-85
2022/01/11 21:43:44;;;;;;;93.10;22.85;;;;;;;;;;4922064;29;20059;-86
2022/01/11 21:46:11;;;;;;;93.57;23.27;;;;;;;;;;4926659;29;20126;-86
2022/01/11 21:48:39;;;;;;;67.30;22.48;;;;;;;;;;4924253;29;20409;-84
2022/01/11 21:51:05;;;;;;;65.90;21.92;;;;;;;;;;4930037;29;20457;-85
2022/01/11 21:53:33;;;;;;;190.10;24.40;;;;;;;;;;4925885;29;20052;-85
2022/01/11 21:56:03;;;;;;;683.15;35.88;;;;;;;;;;4932730;29;20040;-84